ORD weather

Chicago O'Hare International Airport
Chicago, Illinois, United States

Public forecast

Using degrees Fahrenheit for public forecast. Weather courtesy of forecast.io.

METAR (pilot weather report)

Retrieved 2019/02/18 17:51 UTC (22 minutes ago):

KORD 181751Z 35008KT 10SM FEW020 BKN038 M03/M07 A3033 RMK AO2 SLP282 4/004 933003 60001 T10281072 11028 21067 51031 $

TAF (pilot weather forecast)

Retrieved 2019/02/18 18:22 UTC (0 seconds ago):

TAF KORD 181720Z 1818/1924 36009KT P6SM SCT015 TEMPO 1818/1821 BKN018 FM182100 35007KT P6SM SCT025 FM190600 VRB03KT P6SM SCT150 FM191900 11005KT P6SM SCT045 BKN250